sensor_id;sensor_type;location;lat;lon;timestamp;P1;durP1;ratioP1;P2;durP2;ratioP2
2548;SDS011;1284;53.520;10.248;2023-03-19T00:01:59;2.13;;;0.98;;
2548;SDS011;1284;53.520;10.248;2023-03-19T00:04:25;1.92;;;1.20;;
2548;SDS011;1284;53.520;10.248;2023-03-19T00:06:51;1.05;;;0.88;;
2548;SDS011;1284;53.520;10.248;2023-03-19T00:09:18;2.45;;;0.90;;
2548;SDS011;1284;53.520;10.248;2023-03-19T00:11:44;2.30;;;1.13;;
2548;SDS011;1284;53.520;10.248;2023-03-19T00:14:10;1.30;;;0.77;;
2548;SDS011;1284;53.520;10.248;2023-03-19T00:16:36;1.55;;;0.90;;
2548;SDS011;1284;53.520;10.248;2023-03-19T00:19:02;2.70;;;1.38;;
2548;SDS011;1284;53.520;10.248;2023-03-19T00:21:28;1.70;;;0.85;;
2548;SDS011;1284;53.520;10.248;2023-03-19T00:23:54;2.45;;;1.00;;
2548;SDS011;1284;53.520;10.248;2023-03-19T00:26:25;0.95;;;0.73;;
2548;SDS011;1284;53.520;10.248;2023-03-19T00:28:52;1.70;;;1.00;;
2548;SDS011;1284;53.520;10.248;2023-03-19T00:31:18;2.22;;;1.08;;
2548;SDS011;1284;53.520;10.248;2023-03-19T00:33:44;0.95;;;0.82;;
2548;SDS011;1284;53.520;10.248;2023-03-19T00:36:09;0.75;;;0.73;;
2548;SDS011;1284;53.520;10.248;2023-03-19T00:38:35;0.80;;;0.70;;
2548;SDS011;1284;53.520;10.248;2023-03-19T00:41:02;5.03;;;1.20;;
2548;SDS011;1284;53.520;10.248;2023-03-19T00:43:29;1.85;;;1.38;;
2548;SDS011;1284;53.520;10.248;2023-03-19T00:45:56;1.63;;;0.77;;
2548;SDS011;1284;53.520;10.248;2023-03-19T00:48:22;1.25;;;1.02;;
2548;SDS011;1284;53.520;10.248;2023-03-19T00:50:47;0.68;;;0.68;;
2548;SDS011;1284;53.520;10.248;2023-03-19T00:53:13;1.83;;;1.10;;
2548;SDS011;1284;53.520;10.248;2023-03-19T00:55:38;0.93;;;0.70;;
2548;SDS011;1284;53.520;10.248;2023-03-19T00:58:04;1.02;;;0.80;;
2548;SDS011;1284;53.520;10.248;2023-03-19T01:00:31;1.25;;;0.70;;
2548;SDS011;1284;53.520;10.248;2023-03-19T01:02:57;1.05;;;0.70;;
2548;SDS011;1284;53.520;10.248;2023-03-19T01:05:23;1.35;;;0.90;;
2548;SDS011;1284;53.520;10.248;2023-03-19T01:07:49;0.50;;;0.47;;
2548;SDS011;1284;53.520;10.248;2023-03-19T01:10:18;0.82;;;0.70;;
2548;SDS011;1284;53.520;10.248;2023-03-19T01:12:46;0.63;;;0.63;;
2548;SDS011;1284;53.520;10.248;2023-03-19T01:15:12;0.82;;;0.68;;
2548;SDS011;1284;53.520;10.248;2023-03-19T01:17:38;0.50;;;0.50;;
2548;SDS011;1284;53.520;10.248;2023-03-19T01:20:04;0.80;;;0.70;;
2548;SDS011;1284;53.520;10.248;2023-03-19T01:22:36;0.40;;;0.40;;
2548;SDS011;1284;53.520;10.248;2023-03-19T01:25:02;1.42;;;0.50;;
2548;SDS011;1284;53.520;10.248;2023-03-19T01:27:29;0.50;;;0.50;;
2548;SDS011;1284;53.520;10.248;2023-03-19T01:29:55;0.60;;;0.45;;
2548;SDS011;1284;53.520;10.248;2023-03-19T01:32:46;0.60;;;0.60;;
2548;SDS011;1284;53.520;10.248;2023-03-19T01:35:30;0.40;;;0.40;;
2548;SDS011;1284;53.520;10.248;2023-03-19T01:37:56;0.98;;;0.45;;
2548;SDS011;1284;53.520;10.248;2023-03-19T01:40:22;0.70;;;0.50;;
2548;SDS011;1284;53.520;10.248;2023-03-19T01:45:43;0.30;;;0.30;;
2548;SDS011;1284;53.520;10.248;2023-03-19T01:48:53;0.30;;;0.30;;
2548;SDS011;1284;53.520;10.248;2023-03-19T01:51:25;0.60;;;0.50;;
2548;SDS011;1284;53.520;10.248;2023-03-19T01:54:06;0.60;;;0.60;;
2548;SDS011;1284;53.520;10.248;2023-03-19T01:57:01;0.85;;;0.85;;
2548;SDS011;1284;53.520;10.248;2023-03-19T02:00:00;0.30;;;0.30;;
2548;SDS011;1284;53.520;10.248;2023-03-19T02:02:45;0.68;;;0.35;;
2548;SDS011;1284;53.520;10.248;2023-03-19T02:05:33;0.30;;;0.30;;
2548;SDS011;1284;53.520;10.248;2023-03-19T02:08:05;2.15;;;0.63;;
2548;SDS011;1284;53.520;10.248;2023-03-19T02:10:34;0.47;;;0.47;;
2548;SDS011;1284;53.520;10.248;2023-03-19T02:13:00;0.52;;;0.52;;
2548;SDS011;1284;53.520;10.248;2023-03-19T02:15:29;0.28;;;0.28;;
2548;SDS011;1284;53.520;10.248;2023-03-19T02:17:54;0.45;;;0.35;;
2548;SDS011;1284;53.520;10.248;2023-03-19T02:20:31;0.65;;;0.40;;
2548;SDS011;1284;53.520;10.248;2023-03-19T02:28:11;0.35;;;0.35;;
2548;SDS011;1284;53.520;10.248;2023-03-19T02:30:40;0.40;;;0.40;;
2548;SDS011;1284;53.520;10.248;2023-03-19T02:33:12;0.55;;;0.28;;
2548;SDS011;1284;53.520;10.248;2023-03-19T02:35:40;0.30;;;0.30;;
2548;SDS011;1284;53.520;10.248;2023-03-19T02:38:07;0.20;;;0.20;;
2548;SDS011;1284;53.520;10.248;2023-03-19T02:40:34;0.50;;;0.50;;
2548;SDS011;1284;53.520;10.248;2023-03-19T02:43:03;1.17;;;0.60;;
2548;SDS011;1284;53.520;10.248;2023-03-19T02:45:30;1.13;;;0.50;;
2548;SDS011;1284;53.520;10.248;2023-03-19T02:47:56;0.60;;;0.60;;
2548;SDS011;1284;53.520;10.248;2023-03-19T02:50:23;0.73;;;0.50;;
2548;SDS011;1284;53.520;10.248;2023-03-19T02:52:48;2.25;;;0.65;;
2548;SDS011;1284;53.520;10.248;2023-03-19T02:55:14;0.55;;;0.50;;
2548;SDS011;1284;53.520;10.248;2023-03-19T02:57:42;0.60;;;0.40;;
2548;SDS011;1284;53.520;10.248;2023-03-19T03:00:09;0.50;;;0.20;;
2548;SDS011;1284;53.520;10.248;2023-03-19T03:02:36;2.67;;;0.77;;
2548;SDS011;1284;53.520;10.248;2023-03-19T03:05:03;0.57;;;0.47;;
2548;SDS011;1284;53.520;10.248;2023-03-19T03:07:29;0.55;;;0.50;;
2548;SDS011;1284;53.520;10.248;2023-03-19T03:09:55;0.70;;;0.45;;
2548;SDS011;1284;53.520;10.248;2023-03-19T03:12:21;0.25;;;0.25;;
2548;SDS011;1284;53.520;10.248;2023-03-19T03:14:47;0.32;;;0.30;;
2548;SDS011;1284;53.520;10.248;2023-03-19T03:17:13;1.38;;;0.80;;
2548;SDS011;1284;53.520;10.248;2023-03-19T03:19:39;0.68;;;0.43;;
2548;SDS011;1284;53.520;10.248;2023-03-19T03:22:05;1.23;;;0.50;;
2548;SDS011;1284;53.520;10.248;2023-03-19T03:24:32;0.52;;;0.50;;
2548;SDS011;1284;53.520;10.248;2023-03-19T03:26:57;1.15;;;0.70;;
2548;SDS011;1284;53.520;10.248;2023-03-19T03:29:23;0.75;;;0.32;;
2548;SDS011;1284;53.520;10.248;2023-03-19T03:31:49;0.93;;;0.60;;
2548;SDS011;1284;53.520;10.248;2023-03-19T03:34:15;0.77;;;0.60;;
2548;SDS011;1284;53.520;10.248;2023-03-19T03:36:40;0.57;;;0.50;;
2548;SDS011;1284;53.520;10.248;2023-03-19T03:39:06;0.57;;;0.40;;
2548;SDS011;1284;53.520;10.248;2023-03-19T03:41:31;0.85;;;0.60;;
2548;SDS011;1284;53.520;10.248;2023-03-19T03:43:58;0.85;;;0.43;;
2548;SDS011;1284;53.520;10.248;2023-03-19T03:46:23;0.77;;;0.55;;
2548;SDS011;1284;53.520;10.248;2023-03-19T03:48:51;2.35;;;0.70;;
2548;SDS011;1284;53.520;10.248;2023-03-19T03:51:17;0.75;;;0.40;;
2548;SDS011;1284;53.520;10.248;2023-03-19T03:53:43;0.40;;;0.40;;
2548;SDS011;1284;53.520;10.248;2023-03-19T03:56:10;0.75;;;0.55;;
2548;SDS011;1284;53.520;10.248;2023-03-19T03:58:36;1.15;;;0.60;;
2548;SDS011;1284;53.520;10.248;2023-03-19T04:01:02;0.68;;;0.65;;
2548;SDS011;1284;53.520;10.248;2023-03-19T04:03:30;1.00;;;0.70;;
2548;SDS011;1284;53.520;10.248;2023-03-19T04:05:56;1.63;;;0.75;;
2548;SDS011;1284;53.520;10.248;2023-03-19T04:08:21;1.38;;;0.90;;
2548;SDS011;1284;53.520;10.248;2023-03-19T04:10:47;0.77;;;0.70;;
2548;SDS011;1284;53.520;10.248;2023-03-19T04:13:13;1.73;;;0.70;;
2548;SDS011;1284;53.520;10.248;2023-03-19T04:15:40;2.63;;;0.75;;
2548;SDS011;1284;53.520;10.248;2023-03-19T04:18:08;1.15;;;0.70;;
2548;SDS011;1284;53.520;10.248;2023-03-19T04:20:33;0.88;;;0.77;;
2548;SDS011;1284;53.520;10.248;2023-03-19T04:22:59;1.83;;;0.82;;
2548;SDS011;1284;53.520;10.248;2023-03-19T04:25:26;1.38;;;0.93;;
2548;SDS011;1284;53.520;10.248;2023-03-19T04:27:52;0.60;;;0.60;;
2548;SDS011;1284;53.520;10.248;2023-03-19T04:30:17;1.25;;;1.00;;
2548;SDS011;1284;53.520;10.248;2023-03-19T04:32:44;0.95;;;0.82;;
2548;SDS011;1284;53.520;10.248;2023-03-19T04:35:10;2.20;;;0.70;;
2548;SDS011;1284;53.520;10.248;2023-03-19T04:37:36;1.70;;;0.88;;
2548;SDS011;1284;53.520;10.248;2023-03-19T04:40:02;1.60;;;0.90;;
2548;SDS011;1284;53.520;10.248;2023-03-19T04:42:32;0.65;;;0.60;;
2548;SDS011;1284;53.520;10.248;2023-03-19T04:45:08;1.27;;;0.88;;
2548;SDS011;1284;53.520;10.248;2023-03-19T04:47:34;2.40;;;1.05;;
2548;SDS011;1284;53.520;10.248;2023-03-19T04:50:00;1.95;;;1.10;;
2548;SDS011;1284;53.520;10.248;2023-03-19T04:52:25;2.10;;;1.30;;
2548;SDS011;1284;53.520;10.248;2023-03-19T04:54:52;2.47;;;1.25;;
2548;SDS011;1284;53.520;10.248;2023-03-19T04:57:18;1.27;;;0.90;;
2548;SDS011;1284;53.520;10.248;2023-03-19T04:59:45;3.25;;;1.45;;
2548;SDS011;1284;53.520;10.248;2023-03-19T05:02:13;1.33;;;1.08;;
2548;SDS011;1284;53.520;10.248;2023-03-19T05:04:40;1.52;;;1.00;;
2548;SDS011;1284;53.520;10.248;2023-03-19T05:07:09;2.20;;;1.25;;
2548;SDS011;1284;53.520;10.248;2023-03-19T05:09:36;2.60;;;1.00;;
2548;SDS011;1284;53.520;10.248;2023-03-19T05:12:01;2.30;;;1.20;;
2548;SDS011;1284;53.520;10.248;2023-03-19T05:14:31;1.90;;;1.30;;
2548;SDS011;1284;53.520;10.248;2023-03-19T05:17:18;2.28;;;1.42;;
2548;SDS011;1284;53.520;10.248;2023-03-19T05:20:02;3.17;;;1.48;;
2548;SDS011;1284;53.520;10.248;2023-03-19T05:22:30;1.10;;;1.00;;
2548;SDS011;1284;53.520;10.248;2023-03-19T05:24:56;1.38;;;1.05;;
2548;SDS011;1284;53.520;10.248;2023-03-19T05:27:22;3.95;;;1.38;;
2548;SDS011;1284;53.520;10.248;2023-03-19T05:30:01;2.90;;;1.48;;
2548;SDS011;1284;53.520;10.248;2023-03-19T05:32:46;1.98;;;1.40;;
2548;SDS011;1284;53.520;10.248;2023-03-19T05:35:23;2.30;;;1.42;;
2548;SDS011;1284;53.520;10.248;2023-03-19T05:37:48;2.17;;;1.13;;
2548;SDS011;1284;53.520;10.248;2023-03-19T05:40:15;4.22;;;1.48;;
2548;SDS011;1284;53.520;10.248;2023-03-19T05:42:43;2.20;;;1.25;;
2548;SDS011;1284;53.520;10.248;2023-03-19T05:45:10;1.38;;;1.10;;
2548;SDS011;1284;53.520;10.248;2023-03-19T05:47:45;2.42;;;0.98;;
2548;SDS011;1284;53.520;10.248;2023-03-19T05:50:12;1.45;;;1.30;;
2548;SDS011;1284;53.520;10.248;2023-03-19T05:52:44;3.00;;;1.65;;
2548;SDS011;1284;53.520;10.248;2023-03-19T05:55:10;2.05;;;1.17;;
2548;SDS011;1284;53.520;10.248;2023-03-19T05:57:40;1.67;;;1.23;;
2548;SDS011;1284;53.520;10.248;2023-03-19T06:00:16;1.45;;;1.15;;
2548;SDS011;1284;53.520;10.248;2023-03-19T06:02:44;3.90;;;1.45;;
2548;SDS011;1284;53.520;10.248;2023-03-19T06:05:21;1.25;;;1.10;;
2548;SDS011;1284;53.520;10.248;2023-03-19T06:07:47;1.17;;;1.08;;
2548;SDS011;1284;53.520;10.248;2023-03-19T06:10:21;2.40;;;1.27;;
2548;SDS011;1284;53.520;10.248;2023-03-19T06:12:51;2.97;;;1.40;;
2548;SDS011;1284;53.520;10.248;2023-03-19T06:18:17;2.28;;;1.85;;
2548;SDS011;1284;53.520;10.248;2023-03-19T06:20:44;3.55;;;1.40;;
2548;SDS011;1284;53.520;10.248;2023-03-19T06:23:11;2.17;;;1.00;;
2548;SDS011;1284;53.520;10.248;2023-03-19T06:25:37;3.85;;;1.77;;
2548;SDS011;1284;53.520;10.248;2023-03-19T06:28:03;1.50;;;1.10;;
2548;SDS011;1284;53.520;10.248;2023-03-19T06:30:34;1.52;;;1.23;;
2548;SDS011;1284;53.520;10.248;2023-03-19T06:33:03;3.10;;;1.33;;
2548;SDS011;1284;53.520;10.248;2023-03-19T06:35:29;2.15;;;1.52;;
2548;SDS011;1284;53.520;10.248;2023-03-19T06:37:55;2.17;;;1.42;;
2548;SDS011;1284;53.520;10.248;2023-03-19T06:40:20;4.97;;;1.30;;
2548;SDS011;1284;53.520;10.248;2023-03-19T06:42:47;4.00;;;1.83;;
2548;SDS011;1284;53.520;10.248;2023-03-19T06:45:14;2.80;;;1.10;;
2548;SDS011;1284;53.520;10.248;2023-03-19T06:47:49;2.53;;;1.40;;
2548;SDS011;1284;53.520;10.248;2023-03-19T06:50:15;2.67;;;1.17;;
2548;SDS011;1284;53.520;10.248;2023-03-19T06:52:42;2.53;;;1.55;;
2548;SDS011;1284;53.520;10.248;2023-03-19T06:55:08;2.05;;;1.20;;
2548;SDS011;1284;53.520;10.248;2023-03-19T06:57:35;1.83;;;1.17;;
2548;SDS011;1284;53.520;10.248;2023-03-19T07:00:01;2.97;;;1.55;;
2548;SDS011;1284;53.520;10.248;2023-03-19T07:02:31;2.08;;;1.50;;
2548;SDS011;1284;53.520;10.248;2023-03-19T07:04:56;3.95;;;1.38;;
2548;SDS011;1284;53.520;10.248;2023-03-19T07:07:22;2.72;;;1.45;;
2548;SDS011;1284;53.520;10.248;2023-03-19T07:09:47;1.95;;;1.35;;
2548;SDS011;1284;53.520;10.248;2023-03-19T07:12:13;3.00;;;1.40;;
2548;SDS011;1284;53.520;10.248;2023-03-19T07:14:38;2.10;;;0.98;;
2548;SDS011;1284;53.520;10.248;2023-03-19T07:17:04;4.07;;;1.48;;
2548;SDS011;1284;53.520;10.248;2023-03-19T07:19:29;2.53;;;1.33;;
2548;SDS011;1284;53.520;10.248;2023-03-19T07:21:55;1.92;;;1.17;;
2548;SDS011;1284;53.520;10.248;2023-03-19T07:24:20;1.75;;;1.20;;
2548;SDS011;1284;53.520;10.248;2023-03-19T07:26:46;2.55;;;1.48;;
2548;SDS011;1284;53.520;10.248;2023-03-19T07:29:12;1.63;;;1.25;;
2548;SDS011;1284;53.520;10.248;2023-03-19T07:31:57;1.30;;;0.95;;
2548;SDS011;1284;53.520;10.248;2023-03-19T07:34:23;1.85;;;1.38;;
2548;SDS011;1284;53.520;10.248;2023-03-19T07:36:48;2.40;;;1.17;;
2548;SDS011;1284;53.520;10.248;2023-03-19T07:39:15;2.15;;;1.00;;
2548;SDS011;1284;53.520;10.248;2023-03-19T07:41:41;3.70;;;1.10;;
2548;SDS011;1284;53.520;10.248;2023-03-19T07:44:13;1.75;;;0.98;;
2548;SDS011;1284;53.520;10.248;2023-03-19T07:46:40;1.85;;;0.90;;
2548;SDS011;1284;53.520;10.248;2023-03-19T07:49:05;2.13;;;0.93;;
2548;SDS011;1284;53.520;10.248;2023-03-19T07:51:31;2.05;;;1.13;;
2548;SDS011;1284;53.520;10.248;2023-03-19T07:53:57;2.17;;;1.10;;
2548;SDS011;1284;53.520;10.248;2023-03-19T07:56:23;1.65;;;0.80;;
2548;SDS011;1284;53.520;10.248;2023-03-19T07:58:48;3.17;;;0.95;;
2548;SDS011;1284;53.520;10.248;2023-03-19T08:01:14;1.95;;;1.08;;
2548;SDS011;1284;53.520;10.248;2023-03-19T08:03:39;2.70;;;1.40;;
2548;SDS011;1284;53.520;10.248;2023-03-19T08:06:05;1.42;;;0.98;;
2548;SDS011;1284;53.520;10.248;2023-03-19T08:08:30;1.88;;;1.02;;
2548;SDS011;1284;53.520;10.248;2023-03-19T08:10:58;1.52;;;1.20;;
2548;SDS011;1284;53.520;10.248;2023-03-19T08:13:24;2.33;;;1.00;;
2548;SDS011;1284;53.520;10.248;2023-03-19T08:15:50;1.88;;;1.20;;
2548;SDS011;1284;53.520;10.248;2023-03-19T08:18:16;1.30;;;0.88;;
2548;SDS011;1284;53.520;10.248;2023-03-19T08:20:43;2.75;;;1.05;;
2548;SDS011;1284;53.520;10.248;2023-03-19T08:23:09;1.23;;;1.08;;
2548;SDS011;1284;53.520;10.248;2023-03-19T08:25:34;1.85;;;1.33;;
2548;SDS011;1284;53.520;10.248;2023-03-19T08:28:00;1.50;;;0.80;;
2548;SDS011;1284;53.520;10.248;2023-03-19T08:30:25;2.92;;;1.02;;
2548;SDS011;1284;53.520;10.248;2023-03-19T08:32:51;1.48;;;0.98;;
2548;SDS011;1284;53.520;10.248;2023-03-19T08:35:16;2.33;;;1.27;;
2548;SDS011;1284;53.520;10.248;2023-03-19T08:37:42;1.80;;;0.93;;
2548;SDS011;1284;53.520;10.248;2023-03-19T08:40:07;1.77;;;1.02;;
2548;SDS011;1284;53.520;10.248;2023-03-19T08:42:33;1.52;;;0.90;;
2548;SDS011;1284;53.520;10.248;2023-03-19T08:44:59;1.50;;;0.90;;
2548;SDS011;1284;53.520;10.248;2023-03-19T08:47:25;0.85;;;0.75;;
2548;SDS011;1284;53.520;10.248;2023-03-19T08:49:51;3.65;;;0.90;;
2548;SDS011;1284;53.520;10.248;2023-03-19T08:52:17;1.70;;;0.93;;
2548;SDS011;1284;53.520;10.248;2023-03-19T08:54:43;1.50;;;0.85;;
2548;SDS011;1284;53.520;10.248;2023-03-19T08:57:08;1.30;;;1.00;;
2548;SDS011;1284;53.520;10.248;2023-03-19T08:59:34;2.05;;;1.67;;
2548;SDS011;1284;53.520;10.248;2023-03-19T09:02:00;7.78;;;1.33;;
2548;SDS011;1284;53.520;10.248;2023-03-19T09:04:25;1.55;;;0.80;;
2548;SDS011;1284;53.520;10.248;2023-03-19T09:06:51;1.13;;;0.73;;
2548;SDS011;1284;53.520;10.248;2023-03-19T09:09:21;0.80;;;0.52;;
2548;SDS011;1284;53.520;10.248;2023-03-19T09:11:48;1.90;;;0.90;;
2548;SDS011;1284;53.520;10.248;2023-03-19T09:14:14;1.30;;;1.00;;
2548;SDS011;1284;53.520;10.248;2023-03-19T09:16:41;1.45;;;0.98;;
2548;SDS011;1284;53.520;10.248;2023-03-19T09:19:07;2.75;;;1.67;;
2548;SDS011;1284;53.520;10.248;2023-03-19T09:21:33;1.60;;;0.85;;
2548;SDS011;1284;53.520;10.248;2023-03-19T09:23:59;1.63;;;0.88;;
2548;SDS011;1284;53.520;10.248;2023-03-19T09:26:24;2.55;;;1.00;;
2548;SDS011;1284;53.520;10.248;2023-03-19T09:28:50;1.52;;;1.08;;
2548;SDS011;1284;53.520;10.248;2023-03-19T09:31:15;1.10;;;0.90;;
2548;SDS011;1284;53.520;10.248;2023-03-19T09:33:41;1.90;;;0.85;;
2548;SDS011;1284;53.520;10.248;2023-03-19T09:36:06;2.38;;;1.30;;
2548;SDS011;1284;53.520;10.248;2023-03-19T09:38:32;0.98;;;0.88;;
2548;SDS011;1284;53.520;10.248;2023-03-19T09:41:06;1.90;;;0.90;;
2548;SDS011;1284;53.520;10.248;2023-03-19T09:46:02;0.95;;;0.70;;
2548;SDS011;1284;53.520;10.248;2023-03-19T09:48:39;0.55;;;0.50;;
2548;SDS011;1284;53.520;10.248;2023-03-19T09:51:13;1.40;;;0.90;;
2548;SDS011;1284;53.520;10.248;2023-03-19T09:54:06;1.63;;;0.70;;
2548;SDS011;1284;53.520;10.248;2023-03-19T09:56:41;0.60;;;0.60;;
2548;SDS011;1284;53.520;10.248;2023-03-19T09:59:07;1.50;;;0.93;;
2548;SDS011;1284;53.520;10.248;2023-03-19T10:01:33;1.35;;;0.70;;
2548;SDS011;1284;53.520;10.248;2023-03-19T10:06:32;0.93;;;0.65;;
2548;SDS011;1284;53.520;10.248;2023-03-19T10:12:04;1.70;;;0.70;;
2548;SDS011;1284;53.520;10.248;2023-03-19T10:18:17;1.47;;;0.80;;
2548;SDS011;1284;53.520;10.248;2023-03-19T10:23:09;1.00;;;0.70;;
2548;SDS011;1284;53.520;10.248;2023-03-19T10:25:46;0.95;;;0.60;;
2548;SDS011;1284;53.520;10.248;2023-03-19T10:28:14;1.23;;;0.60;;
2548;SDS011;1284;53.520;10.248;2023-03-19T10:30:41;2.10;;;0.70;;
2548;SDS011;1284;53.520;10.248;2023-03-19T10:33:19;0.90;;;0.50;;
2548;SDS011;1284;53.520;10.248;2023-03-19T10:35:49;0.52;;;0.40;;
2548;SDS011;1284;53.520;10.248;2023-03-19T10:38:24;2.20;;;0.50;;
2548;SDS011;1284;53.520;10.248;2023-03-19T10:43:45;2.10;;;0.57;;
2548;SDS011;1284;53.520;10.248;2023-03-19T10:46:16;0.65;;;0.52;;
2548;SDS011;1284;53.520;10.248;2023-03-19T10:48:42;0.40;;;0.40;;
2548;SDS011;1284;53.520;10.248;2023-03-19T10:51:12;0.98;;;0.50;;
2548;SDS011;1284;53.520;10.248;2023-03-19T10:53:40;0.73;;;0.65;;
2548;SDS011;1284;53.520;10.248;2023-03-19T10:58:42;0.47;;;0.47;;
2548;SDS011;1284;53.520;10.248;2023-03-19T11:01:24;4.05;;;0.93;;
2548;SDS011;1284;53.520;10.248;2023-03-19T11:03:56;0.57;;;0.50;;
2548;SDS011;1284;53.520;10.248;2023-03-19T11:06:32;0.90;;;0.50;;
2548;SDS011;1284;53.520;10.248;2023-03-19T11:09:00;0.40;;;0.40;;
2548;SDS011;1284;53.520;10.248;2023-03-19T11:11:50;0.93;;;0.50;;
2548;SDS011;1284;53.520;10.248;2023-03-19T11:14:40;1.63;;;0.50;;
2548;SDS011;1284;53.520;10.248;2023-03-19T11:17:24;0.73;;;0.40;;
2548;SDS011;1284;53.520;10.248;2023-03-19T11:19:54;1.15;;;0.60;;
2548;SDS011;1284;53.520;10.248;2023-03-19T11:25:02;0.88;;;0.47;;
2548;SDS011;1284;53.520;10.248;2023-03-19T11:27:39;0.68;;;0.60;;
2548;SDS011;1284;53.520;10.248;2023-03-19T11:30:11;1.67;;;0.50;;
2548;SDS011;1284;53.520;10.248;2023-03-19T11:37:56;1.92;;;0.63;;
2548;SDS011;1284;53.520;10.248;2023-03-19T11:46:15;0.63;;;0.55;;
2548;SDS011;1284;53.520;10.248;2023-03-19T11:51:19;0.57;;;0.40;;
2548;SDS011;1284;53.520;10.248;2023-03-19T11:53:58;0.40;;;0.25;;
2548;SDS011;1284;53.520;10.248;2023-03-19T12:01:59;0.45;;;0.35;;
2548;SDS011;1284;53.520;10.248;2023-03-19T12:12:24;0.52;;;0.45;;
2548;SDS011;1284;53.520;10.248;2023-03-19T12:15:03;1.30;;;0.43;;
2548;SDS011;1284;53.520;10.248;2023-03-19T12:28:20;0.40;;;0.25;;
2548;SDS011;1284;53.520;10.248;2023-03-19T12:36:29;0.30;;;0.30;;
2548;SDS011;1284;53.520;10.248;2023-03-19T12:39:05;1.13;;;0.40;;
2548;SDS011;1284;53.520;10.248;2023-03-19T12:41:38;0.68;;;0.68;;
2548;SDS011;1284;53.520;10.248;2023-03-19T12:44:18;0.63;;;0.43;;
2548;SDS011;1284;53.520;10.248;2023-03-19T12:49:46;0.40;;;0.40;;
2548;SDS011;1284;53.520;10.248;2023-03-19T12:52:21;1.35;;;0.68;;
2548;SDS011;1284;53.520;10.248;2023-03-19T12:55:36;2.28;;;0.60;;
2548;SDS011;1284;53.520;10.248;2023-03-19T12:57:38;0.68;;;0.50;;
2548;SDS011;1284;53.520;10.248;2023-03-19T13:03:06;0.60;;;0.47;;
2548;SDS011;1284;53.520;10.248;2023-03-19T13:08:26;0.50;;;0.43;;
2548;SDS011;1284;53.520;10.248;2023-03-19T13:10:58;0.60;;;0.60;;
2548;SDS011;1284;53.520;10.248;2023-03-19T13:16:15;0.80;;;0.55;;
2548;SDS011;1284;53.520;10.248;2023-03-19T13:19:12;1.10;;;0.57;;
2548;SDS011;1284;53.520;10.248;2023-03-19T13:21:45;0.80;;;0.60;;
2548;SDS011;1284;53.520;10.248;2023-03-19T13:24:24;0.70;;;0.70;;
2548;SDS011;1284;53.520;10.248;2023-03-19T13:26:57;3.63;;;0.57;;
2548;SDS011;1284;53.520;10.248;2023-03-19T13:29:29;0.65;;;0.50;;
2548;SDS011;1284;53.520;10.248;2023-03-19T13:32:05;0.60;;;0.50;;
2548;SDS011;1284;53.520;10.248;2023-03-19T13:34:35;1.00;;;0.70;;
2548;SDS011;1284;53.520;10.248;2023-03-19T13:39:36;0.32;;;0.30;;
2548;SDS011;1284;53.520;10.248;2023-03-19T13:55:22;1.25;;;0.77;;
2548;SDS011;1284;53.520;10.248;2023-03-19T14:03:18;2.03;;;0.93;;
2548;SDS011;1284;53.520;10.248;2023-03-19T14:05:46;0.82;;;0.52;;
2548;SDS011;1284;53.520;10.248;2023-03-19T14:08:14;1.42;;;0.80;;
2548;SDS011;1284;53.520;10.248;2023-03-19T14:10:51;0.80;;;0.67;;
2548;SDS011;1284;53.520;10.248;2023-03-19T14:13:22;1.48;;;0.70;;
2548;SDS011;1284;53.520;10.248;2023-03-19T14:15:49;1.25;;;0.85;;
2548;SDS011;1284;53.520;10.248;2023-03-19T14:18:21;1.45;;;0.90;;
2548;SDS011;1284;53.520;10.248;2023-03-19T14:21:15;0.75;;;0.55;;
2548;SDS011;1284;53.520;10.248;2023-03-19T14:23:55;1.10;;;0.55;;
2548;SDS011;1284;53.520;10.248;2023-03-19T14:26:24;1.17;;;0.68;;
2548;SDS011;1284;53.520;10.248;2023-03-19T14:31:33;1.00;;;0.55;;
2548;SDS011;1284;53.520;10.248;2023-03-19T14:37:22;1.27;;;0.73;;
2548;SDS011;1284;53.520;10.248;2023-03-19T14:40:07;0.97;;;0.50;;
2548;SDS011;1284;53.520;10.248;2023-03-19T14:45:30;1.08;;;0.65;;
2548;SDS011;1284;53.520;10.248;2023-03-19T14:56:54;1.38;;;0.80;;
2548;SDS011;1284;53.520;10.248;2023-03-19T14:59:21;3.05;;;1.00;;
2548;SDS011;1284;53.520;10.248;2023-03-19T15:01:48;0.85;;;0.73;;
2548;SDS011;1284;53.520;10.248;2023-03-19T15:04:16;0.82;;;0.70;;
2548;SDS011;1284;53.520;10.248;2023-03-19T15:06:49;0.60;;;0.60;;
2548;SDS011;1284;53.520;10.248;2023-03-19T15:09:23;1.10;;;0.63;;
2548;SDS011;1284;53.520;10.248;2023-03-19T15:14:41;1.02;;;0.40;;
2548;SDS011;1284;53.520;10.248;2023-03-19T15:17:22;1.20;;;0.57;;
2548;SDS011;1284;53.520;10.248;2023-03-19T15:19:50;0.82;;;0.43;;
2548;SDS011;1284;53.520;10.248;2023-03-19T15:22:21;0.95;;;0.40;;
2548;SDS011;1284;53.520;10.248;2023-03-19T15:24:51;0.30;;;0.30;;
2548;SDS011;1284;53.520;10.248;2023-03-19T15:27:18;1.67;;;0.82;;
2548;SDS011;1284;53.520;10.248;2023-03-19T15:29:48;1.33;;;0.77;;
2548;SDS011;1284;53.520;10.248;2023-03-19T15:35:00;0.93;;;0.50;;
2548;SDS011;1284;53.520;10.248;2023-03-19T15:37:26;0.55;;;0.40;;
2548;SDS011;1284;53.520;10.248;2023-03-19T15:39:56;0.68;;;0.52;;
2548;SDS011;1284;53.520;10.248;2023-03-19T15:42:25;0.68;;;0.68;;
2548;SDS011;1284;53.520;10.248;2023-03-19T15:44:55;0.40;;;0.38;;
2548;SDS011;1284;53.520;10.248;2023-03-19T15:47:23;0.50;;;0.40;;
2548;SDS011;1284;53.520;10.248;2023-03-19T15:49:53;0.77;;;0.68;;
2548;SDS011;1284;53.520;10.248;2023-03-19T15:52:23;1.17;;;0.60;;
2548;SDS011;1284;53.520;10.248;2023-03-19T15:54:52;0.60;;;0.60;;
2548;SDS011;1284;53.520;10.248;2023-03-19T15:57:19;0.95;;;0.70;;
2548;SDS011;1284;53.520;10.248;2023-03-19T15:59:46;1.65;;;0.70;;
2548;SDS011;1284;53.520;10.248;2023-03-19T16:02:27;0.43;;;0.38;;
2548;SDS011;1284;53.520;10.248;2023-03-19T16:04:56;0.55;;;0.55;;
2548;SDS011;1284;53.520;10.248;2023-03-19T16:07:23;0.82;;;0.70;;
2548;SDS011;1284;53.520;10.248;2023-03-19T16:09:54;1.25;;;0.80;;
2548;SDS011;1284;53.520;10.248;2023-03-19T16:21:04;0.75;;;0.55;;
2548;SDS011;1284;53.520;10.248;2023-03-19T16:23:33;2.35;;;1.20;;
2548;SDS011;1284;53.520;10.248;2023-03-19T16:26:09;2.67;;;1.10;;
2548;SDS011;1284;53.520;10.248;2023-03-19T16:28:45;2.60;;;1.40;;
2548;SDS011;1284;53.520;10.248;2023-03-19T16:31:23;2.50;;;1.17;;
2548;SDS011;1284;53.520;10.248;2023-03-19T16:33:53;1.65;;;0.93;;
2548;SDS011;1284;53.520;10.248;2023-03-19T16:36:19;3.55;;;1.52;;
2548;SDS011;1284;53.520;10.248;2023-03-19T16:38:57;1.25;;;1.13;;
2548;SDS011;1284;53.520;10.248;2023-03-19T16:44:32;1.23;;;1.10;;
2548;SDS011;1284;53.520;10.248;2023-03-19T16:47:07;2.33;;;1.13;;
2548;SDS011;1284;53.520;10.248;2023-03-19T16:49:37;1.95;;;1.05;;
2548;SDS011;1284;53.520;10.248;2023-03-19T16:52:03;3.47;;;1.40;;
2548;SDS011;1284;53.520;10.248;2023-03-19T16:54:30;2.05;;;1.38;;
2548;SDS011;1284;53.520;10.248;2023-03-19T16:56:55;2.75;;;1.45;;
2548;SDS011;1284;53.520;10.248;2023-03-19T16:59:28;2.67;;;1.27;;
2548;SDS011;1284;53.520;10.248;2023-03-19T17:01:55;2.45;;;1.55;;
2548;SDS011;1284;53.520;10.248;2023-03-19T17:04:21;3.15;;;1.52;;
2548;SDS011;1284;53.520;10.248;2023-03-19T17:06:48;2.20;;;1.67;;
2548;SDS011;1284;53.520;10.248;2023-03-19T17:09:14;3.72;;;2.10;;
2548;SDS011;1284;53.520;10.248;2023-03-19T17:11:41;4.75;;;2.03;;
2548;SDS011;1284;53.520;10.248;2023-03-19T17:14:11;3.88;;;2.03;;
2548;SDS011;1284;53.520;10.248;2023-03-19T17:16:40;2.67;;;1.27;;
2548;SDS011;1284;53.520;10.248;2023-03-19T17:19:14;4.05;;;1.80;;
2548;SDS011;1284;53.520;10.248;2023-03-19T17:21:42;5.32;;;1.65;;
2548;SDS011;1284;53.520;10.248;2023-03-19T17:24:41;4.35;;;2.05;;
2548;SDS011;1284;53.520;10.248;2023-03-19T17:27:05;3.05;;;1.42;;
2548;SDS011;1284;53.520;10.248;2023-03-19T17:29:31;2.38;;;1.50;;
2548;SDS011;1284;53.520;10.248;2023-03-19T17:31:58;2.55;;;1.42;;
2548;SDS011;1284;53.520;10.248;2023-03-19T17:34:28;2.72;;;1.63;;
2548;SDS011;1284;53.520;10.248;2023-03-19T17:36:57;3.53;;;1.70;;
2548;SDS011;1284;53.520;10.248;2023-03-19T17:39:25;2.58;;;1.55;;